PWSweather.com
Personal Weather Stations
Station Observations
KTXPLANO70
Kemper Estates, Plano, TX

Kemper EstatesPlano, TX

Lat: 33.0674, Lon: -96.7659

Elevation: 737

Station Type: Davis Vantage Pro2

http://weather.dallasdawg.com

High Low Average
Temperature 81.0°F27.2°C 40.2°F4.6°C 62.4°F16.9°C
Dew Point 54.4°F12.4°C 32.3°F0.2°C 42.6°F5.9°C
Winds 10.4 mph 16.7 kmh Calm Calm 4.0 mph SE6.4 kmh SE
Wind Gusts 20.7 mph33.3 kmh -- 7.0 mph11.3 kmh
Humidity 87% 29% 52%
Pressure 30.27 in1025.1 mb 29.96 in1014.6 mb -
Precipitation 0.00 in0.0 mm - -
Hour Temp Dew Point Humidity Winds Wind Gusts Pressure Precip Precip Rate Daily Precip Total
12:00 AM 46.0°F7.8°C 31.6°F-0.2°C 57% Calm Calm -- 30.21 in1023.0 mb - 0.00 in0.0 mm 0.00 in0.0 mm
12:05 AM 46.1°F7.8°C 31.3°F-0.4°C 56% Calm Calm -- 30.21 in1023.0 mb - 0.00 in0.0 mm 0.00 in0.0 mm
12:10 AM 46.3°F7.9°C 30.5°F-0.8°C 54% Calm Calm -- 30.21 in1023.0 mb - 0.00 in0.0 mm 0.00 in0.0 mm
12:15 AM 46.6°F8.1°C 30.8°F-0.7°C 54% Calm Calm -- 30.20 in1022.7 mb - 0.00 in0.0 mm 0.00 in0.0 mm
12:20 AM 46.7°F8.2°C 31.4°F-0.3°C 55% Calm Calm -- 30.20 in1022.7 mb - 0.00 in0.0 mm 0.00 in0.0 mm
12:25 AM 46.8°F8.2°C 30.5°F-0.8°C 53% Calm Calm -- 30.20 in1022.7 mb - 0.00 in0.0 mm 0.00 in0.0 mm
12:30 AM 46.6°F8.1°C 30.8°F-0.7°C 54% Calm Calm -- 30.20 in1022.7 mb - 0.00 in0.0 mm 0.00 in0.0 mm
12:35 AM 46.3°F7.9°C 31.5°F-0.3°C 56% Calm Calm -- 30.20 in1022.7 mb - 0.00 in0.0 mm 0.00 in0.0 mm
12:40 AM 46.0°F7.8°C 31.2°F-0.4°C 56% Calm Calm -- 30.20 in1022.7 mb - 0.00 in0.0 mm 0.00 in0.0 mm
12:45 AM 45.6°F7.6°C 32.1°F0.1°C 59% Calm Calm -- 30.20 in1022.7 mb - 0.00 in0.0 mm 0.00 in0.0 mm
12:50 AM 45.0°F7.2°C 32.0°F0.0°C 60% Calm Calm -- 30.20 in1022.7 mb - 0.00 in0.0 mm 0.00 in0.0 mm
12:55 AM 44.6°F7.0°C 32.4°F0.2°C 62% 1.2 mph W1.9 kmh W 1.2 mph1.9 kmh 30.19 in1022.4 mb - 0.00 in0.0 mm 0.00 in0.0 mm
01:00 AM 44.3°F6.8°C 32.9°F0.5°C 64% Calm Calm -- 30.19 in1022.4 mb - 0.00 in0.0 mm 0.00 in0.0 mm
01:05 AM 44.0°F6.7°C 32.6°F0.3°C 64% Calm Calm 1.2 mph1.9 kmh 30.19 in1022.4 mb - 0.00 in0.0 mm 0.00 in0.0 mm
01:10 AM 43.9°F6.6°C 33.3°F0.7°C 66% Calm Calm -- 30.20 in1022.7 mb - 0.00 in0.0 mm 0.00 in0.0 mm
01:15 AM 43.8°F6.6°C 33.6°F0.9°C 67% Calm Calm -- 30.20 in1022.7 mb - 0.00 in0.0 mm 0.00 in0.0 mm
01:20 AM 43.7°F6.5°C 33.4°F0.8°C 67% Calm Calm -- 30.20 in1022.7 mb - 0.00 in0.0 mm 0.00 in0.0 mm
01:25 AM 43.6°F6.4°C 33.4°F0.8°C 67% Calm Calm -- 30.20 in1022.7 mb - 0.00 in0.0 mm 0.00 in0.0 mm
01:30 AM 43.5°F6.4°C 33.2°F0.7°C 67% Calm Calm -- 30.20 in1022.7 mb - 0.00 in0.0 mm 0.00 in0.0 mm
01:35 AM 43.3°F6.3°C 32.3°F0.2°C 65% Calm Calm -- 30.20 in1022.7 mb - 0.00 in0.0 mm 0.00 in0.0 mm
01:40 AM 43.3°F6.3°C 32.7°F0.4°C 66% Calm Calm 1.2 mph1.9 kmh 30.20 in1022.7 mb - 0.00 in0.0 mm 0.00 in0.0 mm
01:45 AM 43.1°F6.2°C 32.9°F0.5°C 67% Calm Calm 1.2 mph1.9 kmh 30.20 in1022.7 mb - 0.00 in0.0 mm 0.00 in0.0 mm
01:50 AM 43.1°F6.2°C 33.3°F0.7°C 68% Calm Calm -- 30.20 in1022.7 mb - 0.00 in0.0 mm 0.00 in0.0 mm
01:55 AM 43.2°F6.2°C 33.3°F0.7°C 68% Calm Calm -- 30.20 in1022.7 mb - 0.00 in0.0 mm 0.00 in0.0 mm
02:00 AM 42.9°F6.1°C 33.4°F0.8°C 69% Calm Calm 2.3 mph3.7 kmh 30.20 in1022.7 mb - 0.00 in0.0 mm 0.00 in0.0 mm
02:05 AM 42.8°F6.0°C 33.0°F0.6°C 68% Calm Calm -- 30.20 in1022.7 mb - 0.00 in0.0 mm 0.00 in0.0 mm
02:10 AM 43.0°F6.1°C 32.8°F0.4°C 67% Calm Calm -- 30.20 in1022.7 mb - 0.00 in0.0 mm 0.00 in0.0 mm
02:15 AM 42.9°F6.1°C 33.4°F0.8°C 69% Calm Calm 1.2 mph1.9 kmh 30.20 in1022.7 mb - 0.00 in0.0 mm 0.00 in0.0 mm
02:20 AM 43.1°F6.2°C 34.0°F1.1°C 70% 1.2 mph N1.9 kmh N 2.3 mph3.7 kmh 30.20 in1022.7 mb - 0.00 in0.0 mm 0.00 in0.0 mm
02:25 AM 43.2°F6.2°C 34.1°F1.2°C 70% 1.2 mph N1.9 kmh N 2.3 mph3.7 kmh 30.19 in1022.4 mb - 0.00 in0.0 mm 0.00 in0.0 mm
02:30 AM 43.2°F6.2°C 33.7°F0.9°C 69% 1.2 mph N1.9 kmh N 1.2 mph1.9 kmh 30.20 in1022.7 mb - 0.00 in0.0 mm 0.00 in0.0 mm
02:35 AM 43.1°F6.2°C 33.3°F0.7°C 68% 1.2 mph N1.9 kmh N 2.3 mph3.7 kmh 30.20 in1022.7 mb - 0.00 in0.0 mm 0.00 in0.0 mm
02:40 AM 43.1°F6.2°C 33.3°F0.7°C 68% Calm Calm 1.2 mph1.9 kmh 30.20 in1022.7 mb - 0.00 in0.0 mm 0.00 in0.0 mm
02:45 AM 43.0°F6.1°C 33.2°F0.7°C 68% Calm Calm 1.2 mph1.9 kmh 30.20 in1022.7 mb - 0.00 in0.0 mm 0.00 in0.0 mm
02:50 AM 42.9°F6.1°C 33.8°F1.0°C 70% Calm Calm -- 30.20 in1022.7 mb - 0.00 in0.0 mm 0.00 in0.0 mm
02:55 AM 42.7°F5.9°C 32.9°F0.5°C 68% Calm Calm -- 30.20 in1022.7 mb - 0.00 in0.0 mm 0.00 in0.0 mm
03:00 AM 42.5°F5.8°C 33.1°F0.6°C 69% Calm Calm -- 30.20 in1022.7 mb - 0.00 in0.0 mm 0.00 in0.0 mm
03:05 AM 42.5°F5.8°C 33.1°F0.6°C 69% Calm Calm -- 30.20 in1022.7 mb - 0.00 in0.0 mm 0.00 in0.0 mm
03:10 AM 42.6°F5.9°C 32.8°F0.4°C 68% Calm Calm -- 30.20 in1022.7 mb - 0.00 in0.0 mm 0.00 in0.0 mm
03:15 AM 42.7°F5.9°C 32.5°F0.3°C 67% Calm Calm -- 30.20 in1022.7 mb - 0.00 in0.0 mm 0.00 in0.0 mm
03:20 AM 42.7°F5.9°C 32.9°F0.5°C 68% Calm Calm -- 30.20 in1022.7 mb - 0.00 in0.0 mm 0.00 in0.0 mm
03:25 AM 42.9°F6.1°C 33.1°F0.6°C 68% Calm Calm 1.2 mph1.9 kmh 30.20 in1022.7 mb - 0.00 in0.0 mm 0.00 in0.0 mm
03:30 AM 43.0°F6.1°C 32.8°F0.4°C 67% 1.2 mph N1.9 kmh N 2.3 mph3.7 kmh 30.20 in1022.7 mb - 0.00 in0.0 mm 0.00 in0.0 mm
03:35 AM 43.3°F6.3°C 32.7°F0.4°C 66% 1.2 mph N1.9 kmh N 2.3 mph3.7 kmh 30.20 in1022.7 mb - 0.00 in0.0 mm 0.00 in0.0 mm
03:40 AM 43.4°F6.3°C 32.4°F0.2°C 65% 1.2 mph NE1.9 kmh NE 3.5 mph5.6 kmh 30.20 in1022.7 mb - 0.00 in0.0 mm 0.00 in0.0 mm
03:45 AM 43.5°F6.4°C 32.5°F0.3°C 65% 1.2 mph NE1.9 kmh NE 2.3 mph3.7 kmh 30.20 in1022.7 mb - 0.00 in0.0 mm 0.00 in0.0 mm
03:50 AM 43.4°F6.3°C 32.8°F0.4°C 66% 1.2 mph NE1.9 kmh NE 3.5 mph5.6 kmh 30.20 in1022.7 mb - 0.00 in0.0 mm 0.00 in0.0 mm
03:55 AM 43.3°F6.3°C 33.1°F0.6°C 67% 1.2 mph NE1.9 kmh NE 1.2 mph1.9 kmh 30.20 in1022.7 mb - 0.00 in0.0 mm 0.00 in0.0 mm
04:00 AM 43.1°F6.2°C 32.9°F0.5°C 67% Calm Calm 1.2 mph1.9 kmh 30.20 in1022.7 mb - 0.00 in0.0 mm 0.00 in0.0 mm
04:05 AM 42.9°F6.1°C 33.1°F0.6°C 68% 1.2 mph NE1.9 kmh NE 2.3 mph3.7 kmh 30.20 in1022.7 mb - 0.00 in0.0 mm 0.00 in0.0 mm
04:10 AM 42.6°F5.9°C 33.1°F0.6°C 69% Calm Calm 1.2 mph1.9 kmh 30.21 in1023.0 mb - 0.00 in0.0 mm 0.00 in0.0 mm
04:15 AM 42.7°F5.9°C 33.2°F0.7°C 69% Calm Calm -- 30.21 in1023.0 mb - 0.00 in0.0 mm 0.00 in0.0 mm
04:20 AM 42.3°F5.7°C 33.5°F0.8°C 71% 1.2 mph NE1.9 kmh NE 1.2 mph1.9 kmh 30.21 in1023.0 mb - 0.00 in0.0 mm 0.00 in0.0 mm
04:25 AM 42.0°F5.6°C 33.6°F0.9°C 72% Calm Calm -- 30.22 in1023.4 mb - 0.00 in0.0 mm 0.00 in0.0 mm
04:30 AM 42.5°F5.8°C 34.1°F1.2°C 72% Calm Calm -- 30.22 in1023.4 mb - 0.00 in0.0 mm 0.00 in0.0 mm
04:35 AM 42.0°F5.6°C 33.9°F1.1°C 73% Calm Calm -- 30.22 in1023.4 mb - 0.00 in0.0 mm 0.00 in0.0 mm
04:40 AM 41.7°F5.4°C 33.7°F0.9°C 73% Calm Calm 1.2 mph1.9 kmh 30.22 in1023.4 mb - 0.00 in0.0 mm 0.00 in0.0 mm
04:45 AM 42.0°F5.6°C 34.3°F1.3°C 74% Calm Calm -- 30.22 in1023.4 mb - 0.00 in0.0 mm 0.00 in0.0 mm
04:50 AM 41.6°F5.3°C 33.3°F0.7°C 72% Calm Calm -- 30.22 in1023.4 mb - 0.00 in0.0 mm 0.00 in0.0 mm
04:55 AM 41.5°F5.3°C 33.8°F1.0°C 74% Calm Calm -- 30.22 in1023.4 mb - 0.00 in0.0 mm 0.00 in0.0 mm
05:00 AM 41.4°F5.2°C 33.7°F0.9°C 74% Calm Calm -- 30.22 in1023.4 mb - 0.00 in0.0 mm 0.00 in0.0 mm
05:05 AM 41.3°F5.2°C 33.6°F0.9°C 74% Calm Calm -- 30.22 in1023.4 mb - 0.00 in0.0 mm 0.00 in0.0 mm
05:10 AM 41.3°F5.2°C 33.9°F1.1°C 75% Calm Calm -- 30.22 in1023.4 mb - 0.00 in0.0 mm 0.00 in0.0 mm
05:15 AM 41.0°F5.0°C 33.7°F0.9°C 75% Calm Calm -- 30.22 in1023.4 mb - 0.00 in0.0 mm 0.00 in0.0 mm
05:20 AM 41.1°F5.1°C 33.7°F0.9°C 75% Calm Calm -- 30.22 in1023.4 mb - 0.00 in0.0 mm 0.00 in0.0 mm
05:25 AM 40.9°F4.9°C 33.6°F0.9°C 75% Calm Calm -- 30.22 in1023.4 mb - 0.00 in0.0 mm 0.00 in0.0 mm
05:30 AM 40.7°F4.8°C 33.7°F0.9°C 76% Calm Calm -- 30.22 in1023.4 mb - 0.00 in0.0 mm 0.00 in0.0 mm
05:35 AM 40.5°F4.7°C 33.9°F1.1°C 77% Calm Calm 2.3 mph3.7 kmh 30.23 in1023.7 mb - 0.00 in0.0 mm 0.00 in0.0 mm
05:40 AM 40.9°F4.9°C 34.2°F1.2°C 77% Calm Calm -- 30.23 in1023.7 mb - 0.00 in0.0 mm 0.00 in0.0 mm
05:45 AM 40.7°F4.8°C 34.0°F1.1°C 77% Calm Calm -- 30.23 in1023.7 mb - 0.00 in0.0 mm 0.00 in0.0 mm
05:50 AM 40.5°F4.7°C 34.2°F1.2°C 78% Calm Calm 2.3 mph3.7 kmh 30.23 in1023.7 mb - 0.00 in0.0 mm 0.00 in0.0 mm
05:55 AM 40.7°F4.8°C 34.7°F1.5°C 79% 2.3 mph ENE3.7 kmh ENE 2.3 mph3.7 kmh 30.23 in1023.7 mb - 0.00 in0.0 mm 0.00 in0.0 mm
06:00 AM 41.0°F5.0°C 34.7°F1.5°C 78% Calm Calm 1.2 mph1.9 kmh 30.23 in1023.7 mb - 0.00 in0.0 mm 0.00 in0.0 mm
06:05 AM 40.8°F4.9°C 34.8°F1.6°C 79% Calm Calm 1.2 mph1.9 kmh 30.23 in1023.7 mb - 0.00 in0.0 mm 0.00 in0.0 mm
06:10 AM 40.6°F4.8°C 34.9°F1.6°C 80% Calm Calm 1.2 mph1.9 kmh 30.22 in1023.4 mb - 0.00 in0.0 mm 0.00 in0.0 mm
06:15 AM 40.5°F4.7°C 35.1°F1.7°C 81% Calm Calm 1.2 mph1.9 kmh 30.22 in1023.4 mb - 0.00 in0.0 mm 0.00 in0.0 mm
06:20 AM 40.5°F4.7°C 35.5°F1.9°C 82% 1.2 mph ENE1.9 kmh ENE 1.2 mph1.9 kmh 30.22 in1023.4 mb - 0.00 in0.0 mm 0.00 in0.0 mm
06:25 AM 40.6°F4.8°C 35.5°F1.9°C 82% 1.2 mph ENE1.9 kmh ENE 2.3 mph3.7 kmh 30.22 in1023.4 mb - 0.00 in0.0 mm 0.00 in0.0 mm
06:30 AM 40.7°F4.8°C 35.9°F2.2°C 83% Calm Calm 1.2 mph1.9 kmh 30.23 in1023.7 mb - 0.00 in0.0 mm 0.00 in0.0 mm
06:35 AM 40.7°F4.8°C 36.2°F2.3°C 84% Calm Calm 1.2 mph1.9 kmh 30.23 in1023.7 mb - 0.00 in0.0 mm 0.00 in0.0 mm
06:40 AM 40.8°F4.9°C 36.0°F2.2°C 83% Calm Calm -- 30.23 in1023.7 mb - 0.00 in0.0 mm 0.00 in0.0 mm
06:45 AM 40.8°F4.9°C 36.3°F2.4°C 84% Calm Calm 1.2 mph1.9 kmh 30.23 in1023.7 mb - 0.00 in0.0 mm 0.00 in0.0 mm
06:50 AM 41.0°F5.0°C 36.5°F2.5°C 84% Calm Calm -- 30.24 in1024.0 mb - 0.00 in0.0 mm 0.00 in0.0 mm
06:55 AM 40.9°F4.9°C 36.4°F2.4°C 84% Calm Calm -- 30.24 in1024.0 mb - 0.00 in0.0 mm 0.00 in0.0 mm
07:00 AM 40.7°F4.8°C 36.2°F2.3°C 84% Calm Calm -- 30.24 in1024.0 mb - 0.00 in0.0 mm 0.00 in0.0 mm
07:05 AM 40.3°F4.6°C 36.2°F2.3°C 85% Calm Calm -- 30.24 in1024.0 mb - 0.00 in0.0 mm 0.00 in0.0 mm
07:10 AM 40.2°F4.6°C 36.3°F2.4°C 86% Calm Calm 1.2 mph1.9 kmh 30.24 in1024.0 mb - 0.00 in0.0 mm 0.00 in0.0 mm
07:15 AM 40.3°F4.6°C 36.5°F2.5°C 86% Calm Calm -- 30.24 in1024.0 mb - 0.00 in0.0 mm 0.00 in0.0 mm
07:20 AM 40.4°F4.7°C 36.6°F2.6°C 86% Calm Calm -- 30.25 in1024.4 mb - 0.00 in0.0 mm 0.00 in0.0 mm
07:25 AM 40.8°F4.9°C 37.2°F2.9°C 87% Calm Calm -- 30.25 in1024.4 mb - 0.00 in0.0 mm 0.00 in0.0 mm
07:30 AM 41.1°F5.1°C 37.2°F2.9°C 86% Calm Calm 1.2 mph1.9 kmh 30.25 in1024.4 mb - 0.00 in0.0 mm 0.00 in0.0 mm
07:35 AM 41.3°F5.2°C 37.5°F3.1°C 86% Calm Calm 1.2 mph1.9 kmh 30.25 in1024.4 mb - 0.00 in0.0 mm 0.00 in0.0 mm
07:40 AM 41.7°F5.4°C 37.8°F3.2°C 86% Calm Calm 1.2 mph1.9 kmh 30.25 in1024.4 mb - 0.00 in0.0 mm 0.00 in0.0 mm
07:45 AM 42.9°F6.1°C 38.4°F3.6°C 84% 1.2 mph ENE1.9 kmh ENE 2.3 mph3.7 kmh 30.25 in1024.4 mb - 0.00 in0.0 mm 0.00 in0.0 mm
07:50 AM 43.7°F6.5°C 38.9°F3.8°C 83% 1.2 mph ENE1.9 kmh ENE 2.3 mph3.7 kmh 30.26 in1024.7 mb - 0.00 in0.0 mm 0.00 in0.0 mm
07:55 AM 44.5°F6.9°C 39.1°F3.9°C 81% Calm Calm 2.3 mph3.7 kmh 30.25 in1024.4 mb - 0.00 in0.0 mm 0.00 in0.0 mm
08:00 AM 45.3°F7.4°C 39.5°F4.2°C 80% 2.3 mph ENE3.7 kmh ENE 4.6 mph7.4 kmh 30.25 in1024.4 mb - 0.00 in0.0 mm 0.00 in0.0 mm
08:05 AM 46.2°F7.9°C 39.7°F4.3°C 78% 1.2 mph ENE1.9 kmh ENE 2.3 mph3.7 kmh 30.26 in1024.7 mb - 0.00 in0.0 mm 0.00 in0.0 mm
08:10 AM 47.1°F8.4°C 39.9°F4.4°C 76% 1.2 mph NE1.9 kmh NE 2.3 mph3.7 kmh 30.26 in1024.7 mb - 0.00 in0.0 mm 0.00 in0.0 mm
08:15 AM 47.8°F8.8°C 40.3°F4.6°C 75% 1.2 mph NE1.9 kmh NE 2.3 mph3.7 kmh 30.27 in1025.1 mb - 0.00 in0.0 mm 0.00 in0.0 mm
08:20 AM 48.6°F9.2°C 40.3°F4.6°C 73% 1.2 mph NE1.9 kmh NE 2.3 mph3.7 kmh 30.27 in1025.1 mb - 0.00 in0.0 mm 0.00 in0.0 mm
08:25 AM 49.5°F9.7°C 40.4°F4.7°C 71% 2.3 mph ENE3.7 kmh ENE 3.5 mph5.6 kmh 30.27 in1025.1 mb - 0.00 in0.0 mm 0.00 in0.0 mm
08:30 AM 50.2°F10.1°C 40.4°F4.7°C 69% 1.2 mph NE1.9 kmh NE 4.6 mph7.4 kmh 30.27 in1025.1 mb - 0.00 in0.0 mm 0.00 in0.0 mm
08:35 AM 50.7°F10.4°C 40.1°F4.5°C 67% 1.2 mph NE1.9 kmh NE 2.3 mph3.7 kmh 30.27 in1025.1 mb - 0.00 in0.0 mm 0.00 in0.0 mm
08:40 AM 51.1°F10.6°C 40.6°F4.8°C 67% 3.5 mph E5.6 kmh E 4.6 mph7.4 kmh 30.27 in1025.1 mb - 0.00 in0.0 mm 0.00 in0.0 mm
08:45 AM 51.8°F11.0°C 40.8°F4.9°C 66% 2.3 mph E3.7 kmh E 4.6 mph7.4 kmh 30.27 in1025.1 mb - 0.00 in0.0 mm 0.00 in0.0 mm
08:50 AM 52.5°F11.4°C 40.7°F4.8°C 64% 2.3 mph E3.7 kmh E 4.6 mph7.4 kmh 30.27 in1025.1 mb - 0.00 in0.0 mm 0.00 in0.0 mm
08:55 AM 52.9°F11.6°C 40.2°F4.6°C 62% 2.3 mph E3.7 kmh E 4.6 mph7.4 kmh 30.27 in1025.1 mb - 0.00 in0.0 mm 0.00 in0.0 mm
09:00 AM 53.4°F11.9°C 40.3°F4.6°C 61% 1.2 mph NE1.9 kmh NE 4.6 mph7.4 kmh 30.27 in1025.1 mb - 0.00 in0.0 mm 0.00 in0.0 mm
09:05 AM 53.9°F12.2°C 40.7°F4.8°C 61% 1.2 mph NE1.9 kmh NE 3.5 mph5.6 kmh 30.27 in1025.1 mb - 0.00 in0.0 mm 0.00 in0.0 mm
09:10 AM 54.6°F12.6°C 39.6°F4.2°C 57% 2.3 mph ENE3.7 kmh ENE 3.5 mph5.6 kmh 30.27 in1025.1 mb - 0.00 in0.0 mm 0.00 in0.0 mm
09:15 AM 55.0°F12.8°C 39.2°F4.0°C 55% 1.2 mph ENE1.9 kmh ENE 2.3 mph3.7 kmh 30.27 in1025.1 mb - 0.00 in0.0 mm 0.00 in0.0 mm
09:20 AM 55.7°F13.2°C 38.8°F3.8°C 53% 1.2 mph E1.9 kmh E 3.5 mph5.6 kmh 30.27 in1025.1 mb - 0.00 in0.0 mm 0.00 in0.0 mm
09:25 AM 56.5°F13.6°C 38.6°F3.7°C 51% 1.2 mph E1.9 kmh E 3.5 mph5.6 kmh 30.27 in1025.1 mb - 0.00 in0.0 mm 0.00 in0.0 mm
09:30 AM 57.1°F13.9°C 37.0°F2.8°C 47% Calm Calm 1.2 mph1.9 kmh 30.27 in1025.1 mb - 0.00 in0.0 mm 0.00 in0.0 mm
09:35 AM 57.5°F14.2°C 37.9°F3.3°C 48% 2.3 mph ENE3.7 kmh ENE 4.6 mph7.4 kmh 30.27 in1025.1 mb - 0.00 in0.0 mm 0.00 in0.0 mm
09:40 AM 57.6°F14.2°C 36.4°F2.4°C 45% 2.3 mph ESE3.7 kmh ESE 3.5 mph5.6 kmh 30.27 in1025.1 mb - 0.00 in0.0 mm 0.00 in0.0 mm
09:45 AM 57.9°F14.4°C 35.5°F1.9°C 43% Calm Calm 4.6 mph7.4 kmh 30.26 in1024.7 mb - 0.00 in0.0 mm 0.00 in0.0 mm
09:50 AM 58.5°F14.7°C 35.5°F1.9°C 42% 3.5 mph E5.6 kmh E 4.6 mph7.4 kmh 30.26 in1024.7 mb - 0.00 in0.0 mm 0.00 in0.0 mm
09:55 AM 59.3°F15.2°C 36.2°F2.3°C 42% 1.2 mph NE1.9 kmh NE 3.5 mph5.6 kmh 30.26 in1024.7 mb - 0.00 in0.0 mm 0.00 in0.0 mm
10:00 AM 59.8°F15.4°C 34.8°F1.6°C 39% 2.3 mph ENE3.7 kmh ENE 6.9 mph11.1 kmh 30.26 in1024.7 mb - 0.00 in0.0 mm 0.00 in0.0 mm
10:05 AM 60.1°F15.6°C 35.7°F2.1°C 40% 2.3 mph E3.7 kmh E 4.6 mph7.4 kmh 30.26 in1024.7 mb - 0.00 in0.0 mm 0.00 in0.0 mm
10:10 AM 60.5°F15.8°C 36.1°F2.3°C 40% 2.3 mph NE3.7 kmh NE 3.5 mph5.6 kmh 30.26 in1024.7 mb - 0.00 in0.0 mm 0.00 in0.0 mm
10:15 AM 61.3°F16.3°C 36.1°F2.3°C 39% 1.2 mph E1.9 kmh E 3.5 mph5.6 kmh 30.26 in1024.7 mb - 0.00 in0.0 mm 0.00 in0.0 mm
10:20 AM 61.7°F16.5°C 35.8°F2.1°C 38% 4.6 mph E7.4 kmh E 8.1 mph13.0 kmh 30.26 in1024.7 mb - 0.00 in0.0 mm 0.00 in0.0 mm
10:25 AM 61.9°F16.6°C 36.0°F2.2°C 38% 1.2 mph ENE1.9 kmh ENE 2.3 mph3.7 kmh 30.26 in1024.7 mb - 0.00 in0.0 mm 0.00 in0.0 mm
10:30 AM 61.9°F16.6°C 35.3°F1.8°C 37% 5.8 mph E9.3 kmh E 6.9 mph11.1 kmh 30.26 in1024.7 mb - 0.00 in0.0 mm 0.00 in0.0 mm
10:35 AM 62.3°F16.8°C 35.6°F2.0°C 37% 3.5 mph E5.6 kmh E 8.1 mph13.0 kmh 30.26 in1024.7 mb - 0.00 in0.0 mm 0.00 in0.0 mm
10:40 AM 62.4°F16.9°C 35.7°F2.1°C 37% 3.5 mph E5.6 kmh E 6.9 mph11.1 kmh 30.26 in1024.7 mb - 0.00 in0.0 mm 0.00 in0.0 mm
10:45 AM 63.3°F17.4°C 34.4°F1.3°C 34% 5.8 mph E9.3 kmh E 8.1 mph13.0 kmh 30.25 in1024.4 mb - 0.00 in0.0 mm 0.00 in0.0 mm
10:50 AM 64.0°F17.8°C 35.0°F1.7°C 34% 2.3 mph ESE3.7 kmh ESE 3.5 mph5.6 kmh 30.25 in1024.4 mb - 0.00 in0.0 mm 0.00 in0.0 mm
10:55 AM 64.2°F17.9°C 36.0°F2.2°C 35% 3.5 mph E5.6 kmh E 5.8 mph9.3 kmh 30.25 in1024.4 mb - 0.00 in0.0 mm 0.00 in0.0 mm
11:00 AM 65.1°F18.4°C 36.1°F2.3°C 34% 3.5 mph SE5.6 kmh SE 6.9 mph11.1 kmh 30.25 in1024.4 mb - 0.00 in0.0 mm 0.00 in0.0 mm
11:05 AM 65.4°F18.6°C 34.8°F1.6°C 32% 3.5 mph SE5.6 kmh SE 9.2 mph14.8 kmh 30.24 in1024.0 mb - 0.00 in0.0 mm 0.00 in0.0 mm
11:10 AM 65.6°F18.7°C 35.7°F2.1°C 33% 2.3 mph E3.7 kmh E 4.6 mph7.4 kmh 30.24 in1024.0 mb - 0.00 in0.0 mm 0.00 in0.0 mm
11:15 AM 66.3°F19.1°C 34.7°F1.5°C 31% 5.8 mph ESE9.3 kmh ESE 10.4 mph16.7 kmh 30.24 in1024.0 mb - 0.00 in0.0 mm 0.00 in0.0 mm
11:20 AM 65.8°F18.8°C 35.9°F2.2°C 33% 5.8 mph E9.3 kmh E 10.4 mph16.7 kmh 30.23 in1023.7 mb - 0.00 in0.0 mm 0.00 in0.0 mm
11:25 AM 66.8°F19.3°C 36.0°F2.2°C 32% 4.6 mph E7.4 kmh E 10.4 mph16.7 kmh 30.23 in1023.7 mb - 0.00 in0.0 mm 0.00 in0.0 mm
11:30 AM 67.0°F19.4°C 36.1°F2.3°C 32% 2.3 mph ESE3.7 kmh ESE 10.4 mph16.7 kmh 30.23 in1023.7 mb - 0.00 in0.0 mm 0.00 in0.0 mm
11:35 AM 67.3°F19.6°C 37.2°F2.9°C 33% 6.9 mph SE11.1 kmh SE 10.4 mph16.7 kmh 30.23 in1023.7 mb - 0.00 in0.0 mm 0.00 in0.0 mm
11:40 AM 67.7°F19.8°C 35.9°F2.2°C 31% 3.5 mph S5.6 kmh S 6.9 mph11.1 kmh 30.23 in1023.7 mb - 0.00 in0.0 mm 0.00 in0.0 mm
11:45 AM 68.4°F20.2°C 35.8°F2.1°C 30% 4.6 mph SE7.4 kmh SE 4.6 mph7.4 kmh 30.22 in1023.4 mb - 0.00 in0.0 mm 0.00 in0.0 mm
11:50 AM 68.3°F20.2°C 36.5°F2.5°C 31% 3.5 mph E5.6 kmh E 8.1 mph13.0 kmh 30.22 in1023.4 mb - 0.00 in0.0 mm 0.00 in0.0 mm
11:55 AM 69.9°F21.1°C 37.9°F3.3°C 31% 2.3 mph SE3.7 kmh SE 4.6 mph7.4 kmh 30.21 in1023.0 mb - 0.00 in0.0 mm 0.00 in0.0 mm
12:00 PM 70.0°F21.1°C 37.1°F2.8°C 30% 3.5 mph SE5.6 kmh SE 5.8 mph9.3 kmh 30.21 in1023.0 mb - 0.00 in0.0 mm 0.00 in0.0 mm
12:05 PM 69.9°F21.1°C 38.6°F3.7°C 32% 3.5 mph SSE5.6 kmh SSE 5.8 mph9.3 kmh 30.21 in1023.0 mb - 0.00 in0.0 mm 0.00 in0.0 mm
12:10 PM 71.0°F21.7°C 39.6°F4.2°C 32% 4.6 mph SE7.4 kmh SE 6.9 mph11.1 kmh 30.20 in1022.7 mb - 0.00 in0.0 mm 0.00 in0.0 mm
12:15 PM 71.1°F21.7°C 38.1°F3.4°C 30% 4.6 mph SE7.4 kmh SE 6.9 mph11.1 kmh 30.20 in1022.7 mb - 0.00 in0.0 mm 0.00 in0.0 mm
12:20 PM 71.2°F21.8°C 38.2°F3.4°C 30% 4.6 mph SSE7.4 kmh SSE 5.8 mph9.3 kmh 30.19 in1022.4 mb - 0.00 in0.0 mm 0.00 in0.0 mm
12:25 PM 72.1°F22.3°C 39.8°F4.3°C 31% 2.3 mph SE3.7 kmh SE 2.3 mph3.7 kmh 30.19 in1022.4 mb - 0.00 in0.0 mm 0.00 in0.0 mm
12:30 PM 71.2°F21.8°C 40.6°F4.8°C 33% 2.3 mph SE3.7 kmh SE 8.1 mph13.0 kmh 30.19 in1022.4 mb - 0.00 in0.0 mm 0.00 in0.0 mm
12:35 PM 71.3°F21.8°C 39.1°F3.9°C 31% 5.8 mph SE9.3 kmh SE 9.2 mph14.8 kmh 30.18 in1022.0 mb - 0.00 in0.0 mm 0.00 in0.0 mm
12:40 PM 71.9°F22.2°C 41.2°F5.1°C 33% 3.5 mph SE5.6 kmh SE 5.8 mph9.3 kmh 30.18 in1022.0 mb - 0.00 in0.0 mm 0.00 in0.0 mm
12:45 PM 71.7°F22.1°C 41.1°F5.1°C 33% 3.5 mph SE5.6 kmh SE 5.8 mph9.3 kmh 30.18 in1022.0 mb - 0.00 in0.0 mm 0.00 in0.0 mm
12:50 PM 72.4°F22.4°C 41.7°F5.4°C 33% 3.5 mph SE5.6 kmh SE 8.1 mph13.0 kmh 30.17 in1021.7 mb - 0.00 in0.0 mm 0.00 in0.0 mm
12:55 PM 72.7°F22.6°C 42.7°F5.9°C 34% 8.1 mph SE13.0 kmh SE 11.5 mph18.5 kmh 30.17 in1021.7 mb - 0.00 in0.0 mm 0.00 in0.0 mm
01:00 PM 73.1°F22.8°C 41.5°F5.3°C 32% 5.8 mph SE9.3 kmh SE 6.9 mph11.1 kmh 30.17 in1021.7 mb - 0.00 in0.0 mm 0.00 in0.0 mm
01:05 PM 73.9°F23.3°C 44.5°F6.9°C 35% 2.3 mph SE3.7 kmh SE 6.9 mph11.1 kmh 30.16 in1021.3 mb - 0.00 in0.0 mm 0.00 in0.0 mm
01:10 PM 73.8°F23.2°C 43.6°F6.4°C 34% 4.6 mph SE7.4 kmh SE 9.2 mph14.8 kmh 30.16 in1021.3 mb - 0.00 in0.0 mm 0.00 in0.0 mm
01:15 PM 73.1°F22.8°C 43.1°F6.2°C 34% 5.8 mph SE9.3 kmh SE 8.1 mph13.0 kmh 30.16 in1021.3 mb - 0.00 in0.0 mm 0.00 in0.0 mm
01:20 PM 73.0°F22.8°C 42.9°F6.1°C 34% 3.5 mph SE5.6 kmh SE 4.6 mph7.4 kmh 30.15 in1021.0 mb - 0.00 in0.0 mm 0.00 in0.0 mm
01:25 PM 74.1°F23.4°C 42.3°F5.7°C 32% 6.9 mph SE11.1 kmh SE 8.1 mph13.0 kmh 30.15 in1021.0 mb - 0.00 in0.0 mm 0.00 in0.0 mm
01:30 PM 73.9°F23.3°C 44.5°F6.9°C 35% 4.6 mph SE7.4 kmh SE 10.4 mph16.7 kmh 30.14 in1020.7 mb - 0.00 in0.0 mm 0.00 in0.0 mm
01:35 PM 74.0°F23.3°C 45.3°F7.4°C 36% 4.6 mph S7.4 kmh S 11.5 mph18.5 kmh 30.14 in1020.7 mb - 0.00 in0.0 mm 0.00 in0.0 mm
01:40 PM 74.7°F23.7°C 43.7°F6.5°C 33% 4.6 mph SE7.4 kmh SE 8.1 mph13.0 kmh 30.14 in1020.7 mb - 0.00 in0.0 mm 0.00 in0.0 mm
01:45 PM 75.5°F24.2°C 45.2°F7.3°C 34% 5.8 mph SE9.3 kmh SE 8.1 mph13.0 kmh 30.13 in1020.3 mb - 0.00 in0.0 mm 0.00 in0.0 mm
01:50 PM 75.4°F24.1°C 44.3°F6.8°C 33% 6.9 mph SE11.1 kmh SE 11.5 mph18.5 kmh 30.13 in1020.3 mb - 0.00 in0.0 mm 0.00 in0.0 mm
01:55 PM 75.3°F24.1°C 45.0°F7.2°C 34% 5.8 mph SE9.3 kmh SE 8.1 mph13.0 kmh 30.13 in1020.3 mb - 0.00 in0.0 mm 0.00 in0.0 mm
02:00 PM 76.0°F24.4°C 43.2°F6.2°C 31% 5.8 mph SSE9.3 kmh SSE 5.8 mph9.3 kmh 30.12 in1020.0 mb - 0.00 in0.0 mm 0.00 in0.0 mm
02:05 PM 76.7°F24.8°C 45.4°F7.4°C 33% 3.5 mph SSW5.6 kmh SSW 10.4 mph16.7 kmh 30.12 in1020.0 mb - 0.00 in0.0 mm 0.00 in0.0 mm
02:10 PM 76.1°F24.5°C 44.1°F6.7°C 32% 3.5 mph S5.6 kmh S 8.1 mph13.0 kmh 30.12 in1020.0 mb - 0.00 in0.0 mm 0.00 in0.0 mm
02:15 PM 77.6°F25.3°C 46.2°F7.9°C 33% 4.6 mph SE7.4 kmh SE 4.6 mph7.4 kmh 30.11 in1019.6 mb - 0.00 in0.0 mm 0.00 in0.0 mm
02:20 PM 78.5°F25.8°C 46.2°F7.9°C 32% 3.5 mph S5.6 kmh S 6.9 mph11.1 kmh 30.11 in1019.6 mb - 0.00 in0.0 mm 0.00 in0.0 mm
02:25 PM 77.8°F25.4°C 43.9°F6.6°C 30% 4.6 mph SE7.4 kmh SE 6.9 mph11.1 kmh 30.11 in1019.6 mb - 0.00 in0.0 mm 0.00 in0.0 mm
02:30 PM 78.3°F25.7°C 45.2°F7.3°C 31% 3.5 mph S5.6 kmh S 5.8 mph9.3 kmh 30.10 in1019.3 mb - 0.00 in0.0 mm 0.00 in0.0 mm
02:35 PM 78.8°F26.0°C 45.6°F7.6°C 31% 5.8 mph SSE9.3 kmh SSE 9.2 mph14.8 kmh 30.10 in1019.3 mb - 0.00 in0.0 mm 0.00 in0.0 mm
02:40 PM 79.0°F26.1°C 44.0°F6.7°C 29% 6.9 mph SSE11.1 kmh SSE 15.0 mph24.1 kmh 30.09 in1019.0 mb - 0.00 in0.0 mm 0.00 in0.0 mm
02:45 PM 79.3°F26.3°C 44.3°F6.8°C 29% 3.5 mph S5.6 kmh S 5.8 mph9.3 kmh 30.09 in1019.0 mb - 0.00 in0.0 mm 0.00 in0.0 mm
02:50 PM 79.1°F26.2°C 45.0°F7.2°C 30% 4.6 mph SSE7.4 kmh SSE 11.5 mph18.5 kmh 30.09 in1019.0 mb - 0.00 in0.0 mm 0.00 in0.0 mm
02:55 PM 79.0°F26.1°C 44.9°F7.2°C 30% 6.9 mph SSE11.1 kmh SSE 12.7 mph20.4 kmh 30.08 in1018.6 mb - 0.00 in0.0 mm 0.00 in0.0 mm
03:00 PM 79.6°F26.4°C 46.3°F7.9°C 31% 3.5 mph S5.6 kmh S 6.9 mph11.1 kmh 30.08 in1018.6 mb - 0.00 in0.0 mm 0.00 in0.0 mm
03:05 PM 79.2°F26.2°C 44.2°F6.8°C 29% 6.9 mph SE11.1 kmh SE 13.8 mph22.2 kmh 30.07 in1018.3 mb - 0.00 in0.0 mm 0.00 in0.0 mm
03:10 PM 79.0°F26.1°C 45.8°F7.7°C 31% 6.9 mph SSE11.1 kmh SSE 9.2 mph14.8 kmh 30.07 in1018.3 mb - 0.00 in0.0 mm 0.00 in0.0 mm
03:15 PM 79.1°F26.2°C 45.9°F7.7°C 31% 5.8 mph SE9.3 kmh SE 8.1 mph13.0 kmh 30.07 in1018.3 mb - 0.00 in0.0 mm 0.00 in0.0 mm
03:20 PM 79.4°F26.3°C 45.2°F7.3°C 30% 4.6 mph SE7.4 kmh SE 9.2 mph14.8 kmh 30.06 in1017.9 mb - 0.00 in0.0 mm 0.00 in0.0 mm
03:25 PM 79.0°F26.1°C 44.9°F7.2°C 30% 9.2 mph SE14.8 kmh SE 13.8 mph22.2 kmh 30.06 in1017.9 mb - 0.00 in0.0 mm 0.00 in0.0 mm
03:30 PM 79.4°F26.3°C 46.1°F7.8°C 31% 8.1 mph SE13.0 kmh SE 12.7 mph20.4 kmh 30.05 in1017.6 mb - 0.00 in0.0 mm 0.00 in0.0 mm
03:35 PM 79.7°F26.5°C 45.5°F7.5°C 30% 6.9 mph SSE11.1 kmh SSE 12.7 mph20.4 kmh 30.05 in1017.6 mb - 0.00 in0.0 mm 0.00 in0.0 mm
03:40 PM 79.8°F26.6°C 47.3°F8.5°C 32% 3.5 mph S5.6 kmh S 9.2 mph14.8 kmh 30.05 in1017.6 mb - 0.00 in0.0 mm 0.00 in0.0 mm
03:45 PM 80.0°F26.7°C 46.6°F8.1°C 31% 9.2 mph SE14.8 kmh SE 12.7 mph20.4 kmh 30.05 in1017.6 mb - 0.00 in0.0 mm 0.00 in0.0 mm
03:50 PM 79.9°F26.6°C 46.6°F8.1°C 31% 6.9 mph SE11.1 kmh SE 12.7 mph20.4 kmh 30.04 in1017.3 mb - 0.00 in0.0 mm 0.00 in0.0 mm
03:55 PM 80.1°F26.7°C 46.8°F8.2°C 31% 3.5 mph SSE5.6 kmh SSE 8.1 mph13.0 kmh 30.03 in1016.9 mb - 0.00 in0.0 mm 0.00 in0.0 mm
04:00 PM 80.6°F27.0°C 47.2°F8.4°C 31% 5.8 mph SSE9.3 kmh SSE 17.3 mph27.8 kmh 30.03 in1016.9 mb - 0.00 in0.0 mm 0.00 in0.0 mm
04:05 PM 80.6°F27.0°C 47.2°F8.4°C 31% 3.5 mph SE5.6 kmh SE 4.6 mph7.4 kmh 30.02 in1016.6 mb - 0.00 in0.0 mm 0.00 in0.0 mm
04:10 PM 80.9°F27.2°C 47.4°F8.6°C 31% 5.8 mph S9.3 kmh S 10.4 mph16.7 kmh 30.02 in1016.6 mb - 0.00 in0.0 mm 0.00 in0.0 mm
04:15 PM 81.0°F27.2°C 47.5°F8.6°C 31% 3.5 mph S5.6 kmh S 6.9 mph11.1 kmh 30.02 in1016.6 mb - 0.00 in0.0 mm 0.00 in0.0 mm
04:20 PM 81.0°F27.2°C 47.5°F8.6°C 31% 3.5 mph SE5.6 kmh SE 4.6 mph7.4 kmh 30.01 in1016.3 mb - 0.00 in0.0 mm 0.00 in0.0 mm
04:25 PM 80.9°F27.2°C 47.4°F8.6°C 31% 6.9 mph SE11.1 kmh SE 13.8 mph22.2 kmh 30.01 in1016.3 mb - 0.00 in0.0 mm 0.00 in0.0 mm
04:30 PM 80.7°F27.1°C 48.1°F8.9°C 32% 3.5 mph S5.6 kmh S 9.2 mph14.8 kmh 30.01 in1016.3 mb - 0.00 in0.0 mm 0.00 in0.0 mm
04:35 PM 80.8°F27.1°C 46.5°F8.1°C 30% 6.9 mph SE11.1 kmh SE 12.7 mph20.4 kmh 30.01 in1016.3 mb - 0.00 in0.0 mm 0.00 in0.0 mm
04:40 PM 80.2°F26.8°C 46.8°F8.2°C 31% 6.9 mph SE11.1 kmh SE 15.0 mph24.1 kmh 30.00 in1015.9 mb - 0.00 in0.0 mm 0.00 in0.0 mm
04:45 PM 80.4°F26.9°C 47.0°F8.3°C 31% 8.1 mph SE13.0 kmh SE 12.7 mph20.4 kmh 30.00 in1015.9 mb - 0.00 in0.0 mm 0.00 in0.0 mm
04:50 PM 80.3°F26.8°C 47.8°F8.8°C 32% 3.5 mph S5.6 kmh S 4.6 mph7.4 kmh 30.00 in1015.9 mb - 0.00 in0.0 mm 0.00 in0.0 mm
04:55 PM 80.3°F26.8°C 47.7°F8.7°C 32% 6.9 mph SE11.1 kmh SE 11.5 mph18.5 kmh 30.00 in1015.9 mb - 0.00 in0.0 mm 0.00 in0.0 mm
05:00 PM 80.1°F26.7°C 47.6°F8.7°C 32% 6.9 mph SSE11.1 kmh SSE 10.4 mph16.7 kmh 30.00 in1015.9 mb - 0.00 in0.0 mm 0.00 in0.0 mm
05:05 PM 80.1°F26.7°C 48.4°F9.1°C 33% 8.1 mph SE13.0 kmh SE 10.4 mph16.7 kmh 30.00 in1015.9 mb - 0.00 in0.0 mm 0.00 in0.0 mm
05:10 PM 79.5°F26.4°C 47.9°F8.8°C 33% 6.9 mph SSE11.1 kmh SSE 10.4 mph16.7 kmh 29.99 in1015.6 mb - 0.00 in0.0 mm 0.00 in0.0 mm
05:15 PM 80.3°F26.8°C 49.4°F9.7°C 34% 5.8 mph S9.3 kmh S 20.7 mph33.3 kmh 29.99 in1015.6 mb - 0.00 in0.0 mm 0.00 in0.0 mm
05:20 PM 79.8°F26.6°C 48.1°F8.9°C 33% 5.8 mph SE9.3 kmh SE 9.2 mph14.8 kmh 29.99 in1015.6 mb - 0.00 in0.0 mm 0.00 in0.0 mm
05:25 PM 80.1°F26.7°C 48.4°F9.1°C 33% 8.1 mph S13.0 kmh S 15.0 mph24.1 kmh 29.99 in1015.6 mb - 0.00 in0.0 mm 0.00 in0.0 mm
05:30 PM 79.8°F26.6°C 48.1°F8.9°C 33% 3.5 mph S5.6 kmh S 9.2 mph14.8 kmh 29.98 in1015.2 mb - 0.00 in0.0 mm 0.00 in0.0 mm
05:35 PM 79.5°F26.4°C 47.9°F8.8°C 33% 9.2 mph SSE14.8 kmh SSE 12.7 mph20.4 kmh 29.98 in1015.2 mb - 0.00 in0.0 mm 0.00 in0.0 mm
05:40 PM 79.5°F26.4°C 48.6°F9.2°C 34% 4.6 mph SSE7.4 kmh SSE 4.6 mph7.4 kmh 29.98 in1015.2 mb - 0.00 in0.0 mm 0.00 in0.0 mm
05:45 PM 79.6°F26.4°C 48.0°F8.9°C 33% 3.5 mph S5.6 kmh S 4.6 mph7.4 kmh 29.98 in1015.2 mb - 0.00 in0.0 mm 0.00 in0.0 mm
05:50 PM 79.6°F26.4°C 48.8°F9.3°C 34% 4.6 mph SSE7.4 kmh SSE 6.9 mph11.1 kmh 29.98 in1015.2 mb - 0.00 in0.0 mm 0.00 in0.0 mm
05:55 PM 79.3°F26.3°C 48.5°F9.2°C 34% 8.1 mph SE13.0 kmh SE 10.4 mph16.7 kmh 29.98 in1015.2 mb - 0.00 in0.0 mm 0.00 in0.0 mm
06:00 PM 78.9°F26.1°C 48.1°F8.9°C 34% 4.6 mph S7.4 kmh S 10.4 mph16.7 kmh 29.98 in1015.2 mb - 0.00 in0.0 mm 0.00 in0.0 mm
06:05 PM 78.9°F26.1°C 48.1°F8.9°C 34% 6.9 mph SE11.1 kmh SE 13.8 mph22.2 kmh 29.98 in1015.2 mb - 0.00 in0.0 mm 0.00 in0.0 mm
06:10 PM 78.9°F26.1°C 48.1°F8.9°C 34% 5.8 mph SE9.3 kmh SE 11.5 mph18.5 kmh 29.98 in1015.2 mb - 0.00 in0.0 mm 0.00 in0.0 mm
06:15 PM 78.5°F25.8°C 48.6°F9.2°C 35% 4.6 mph SSE7.4 kmh SSE 13.8 mph22.2 kmh 29.98 in1015.2 mb - 0.00 in0.0 mm 0.00 in0.0 mm
06:20 PM 78.4°F25.8°C 48.5°F9.2°C 35% 9.2 mph SE14.8 kmh SE 15.0 mph24.1 kmh 29.98 in1015.2 mb - 0.00 in0.0 mm 0.00 in0.0 mm
06:25 PM 78.2°F25.7°C 48.3°F9.1°C 35% 6.9 mph SE11.1 kmh SE 12.7 mph20.4 kmh 29.97 in1014.9 mb - 0.00 in0.0 mm 0.00 in0.0 mm
06:30 PM 78.2°F25.7°C 48.3°F9.1°C 35% 6.9 mph SSE11.1 kmh SSE 10.4 mph16.7 kmh 29.97 in1014.9 mb - 0.00 in0.0 mm 0.00 in0.0 mm
06:35 PM 78.0°F25.6°C 48.1°F8.9°C 35% 6.9 mph S11.1 kmh S 9.2 mph14.8 kmh 29.97 in1014.9 mb - 0.00 in0.0 mm 0.00 in0.0 mm
06:40 PM 77.9°F25.5°C 48.8°F9.3°C 36% 6.9 mph SSE11.1 kmh SSE 11.5 mph18.5 kmh 29.97 in1014.9 mb - 0.00 in0.0 mm 0.00 in0.0 mm
06:45 PM 77.7°F25.4°C 49.3°F9.6°C 37% 5.8 mph SSE9.3 kmh SSE 9.2 mph14.8 kmh 29.97 in1014.9 mb - 0.00 in0.0 mm 0.00 in0.0 mm
06:50 PM 77.6°F25.3°C 49.2°F9.6°C 37% 5.8 mph SE9.3 kmh SE 12.7 mph20.4 kmh 29.97 in1014.9 mb - 0.00 in0.0 mm 0.00 in0.0 mm
06:55 PM 77.4°F25.2°C 49.8°F9.9°C 38% 4.6 mph SSE7.4 kmh SSE 11.5 mph18.5 kmh 29.97 in1014.9 mb - 0.00 in0.0 mm 0.00 in0.0 mm
07:00 PM 77.3°F25.2°C 49.7°F9.8°C 38% 5.8 mph SSE9.3 kmh SSE 9.2 mph14.8 kmh 29.97 in1014.9 mb - 0.00 in0.0 mm 0.00 in0.0 mm
07:05 PM 77.2°F25.1°C 49.6°F9.8°C 38% 4.6 mph S7.4 kmh S 11.5 mph18.5 kmh 29.96 in1014.6 mb - 0.00 in0.0 mm 0.00 in0.0 mm
07:10 PM 77.0°F25.0°C 50.1°F10.1°C 39% 5.8 mph SSE9.3 kmh SSE 10.4 mph16.7 kmh 29.96 in1014.6 mb - 0.00 in0.0 mm 0.00 in0.0 mm
07:15 PM 76.8°F24.9°C 50.0°F10.0°C 39% 3.5 mph SSE5.6 kmh SSE 9.2 mph14.8 kmh 29.96 in1014.6 mb - 0.00 in0.0 mm 0.00 in0.0 mm
07:20 PM 76.6°F24.8°C 49.8°F9.9°C 39% 9.2 mph SSE14.8 kmh SSE 15.0 mph24.1 kmh 29.96 in1014.6 mb - 0.00 in0.0 mm 0.00 in0.0 mm
07:25 PM 76.4°F24.7°C 49.6°F9.8°C 39% 4.6 mph S7.4 kmh S 6.9 mph11.1 kmh 29.96 in1014.6 mb - 0.00 in0.0 mm 0.00 in0.0 mm
07:30 PM 76.3°F24.6°C 49.5°F9.7°C 39% 5.8 mph SE9.3 kmh SE 5.8 mph9.3 kmh 29.96 in1014.6 mb - 0.00 in0.0 mm 0.00 in0.0 mm
07:35 PM 76.1°F24.5°C 50.0°F10.0°C 40% 5.8 mph SSE9.3 kmh SSE 13.8 mph22.2 kmh 29.96 in1014.6 mb - 0.00 in0.0 mm 0.00 in0.0 mm
07:40 PM 75.8°F24.3°C 50.4°F10.2°C 41% 3.5 mph SE5.6 kmh SE 4.6 mph7.4 kmh 29.96 in1014.6 mb - 0.00 in0.0 mm 0.00 in0.0 mm
07:45 PM 75.6°F24.2°C 50.3°F10.2°C 41% 5.8 mph SE9.3 kmh SE 8.1 mph13.0 kmh 29.96 in1014.6 mb - 0.00 in0.0 mm 0.00 in0.0 mm
07:50 PM 75.4°F24.1°C 50.8°F10.4°C 42% 4.6 mph SE7.4 kmh SE 5.8 mph9.3 kmh 29.96 in1014.6 mb - 0.00 in0.0 mm 0.00 in0.0 mm
07:55 PM 74.9°F23.8°C 50.9°F10.5°C 43% 4.6 mph SE7.4 kmh SE 8.1 mph13.0 kmh 29.96 in1014.6 mb - 0.00 in0.0 mm 0.00 in0.0 mm
08:00 PM 74.6°F23.7°C 51.2°F10.7°C 44% 5.8 mph ESE9.3 kmh ESE 8.1 mph13.0 kmh 29.96 in1014.6 mb - 0.00 in0.0 mm 0.00 in0.0 mm
08:05 PM 74.2°F23.4°C 51.5°F10.8°C 45% 4.6 mph SE7.4 kmh SE 11.5 mph18.5 kmh 29.96 in1014.6 mb - 0.00 in0.0 mm 0.00 in0.0 mm
08:10 PM 74.1°F23.4°C 51.4°F10.8°C 45% 5.8 mph SE9.3 kmh SE 9.2 mph14.8 kmh 29.96 in1014.6 mb - 0.00 in0.0 mm 0.00 in0.0 mm
08:15 PM 73.8°F23.2°C 51.1°F10.6°C 45% 4.6 mph SE7.4 kmh SE 10.4 mph16.7 kmh 29.96 in1014.6 mb - 0.00 in0.0 mm 0.00 in0.0 mm
08:20 PM 73.6°F23.1°C 51.5°F10.8°C 46% 4.6 mph SE7.4 kmh SE 8.1 mph13.0 kmh 29.96 in1014.6 mb - 0.00 in0.0 mm 0.00 in0.0 mm
08:25 PM 73.5°F23.1°C 51.4°F10.8°C 46% 5.8 mph SE9.3 kmh SE 6.9 mph11.1 kmh 29.96 in1014.6 mb - 0.00 in0.0 mm 0.00 in0.0 mm
08:30 PM 73.3°F22.9°C 51.3°F10.7°C 46% 4.6 mph SE7.4 kmh SE 8.1 mph13.0 kmh 29.96 in1014.6 mb - 0.00 in0.0 mm 0.00 in0.0 mm
08:35 PM 73.2°F22.9°C 51.7°F10.9°C 47% 5.8 mph SSE9.3 kmh SSE 10.4 mph16.7 kmh 29.96 in1014.6 mb - 0.00 in0.0 mm 0.00 in0.0 mm
08:40 PM 72.9°F22.7°C 51.5°F10.8°C 47% 4.6 mph SE7.4 kmh SE 12.7 mph20.4 kmh 29.96 in1014.6 mb - 0.00 in0.0 mm 0.00 in0.0 mm
08:45 PM 72.7°F22.6°C 51.9°F11.1°C 48% 4.6 mph SE7.4 kmh SE 8.1 mph13.0 kmh 29.96 in1014.6 mb - 0.00 in0.0 mm 0.00 in0.0 mm
08:50 PM 72.5°F22.5°C 51.7°F10.9°C 48% 4.6 mph SE7.4 kmh SE 8.1 mph13.0 kmh 29.96 in1014.6 mb - 0.00 in0.0 mm 0.00 in0.0 mm
08:55 PM 72.4°F22.4°C 51.6°F10.9°C 48% 5.8 mph SE9.3 kmh SE 10.4 mph16.7 kmh 29.96 in1014.6 mb - 0.00 in0.0 mm 0.00 in0.0 mm
09:00 PM 72.4°F22.4°C 51.6°F10.9°C 48% 9.2 mph SE14.8 kmh SE 16.1 mph25.9 kmh 29.96 in1014.6 mb - 0.00 in0.0 mm 0.00 in0.0 mm
09:05 PM 72.2°F22.3°C 52.0°F11.1°C 49% 6.9 mph SE11.1 kmh SE 11.5 mph18.5 kmh 29.96 in1014.6 mb - 0.00 in0.0 mm 0.00 in0.0 mm
09:10 PM 72.0°F22.2°C 51.8°F11.0°C 49% 8.1 mph SE13.0 kmh SE 11.5 mph18.5 kmh 29.96 in1014.6 mb - 0.00 in0.0 mm 0.00 in0.0 mm
09:15 PM 71.7°F22.1°C 52.1°F11.2°C 50% 3.5 mph SSE5.6 kmh SSE 10.4 mph16.7 kmh 29.96 in1014.6 mb - 0.00 in0.0 mm 0.00 in0.0 mm
09:20 PM 71.5°F21.9°C 51.9°F11.1°C 50% 4.6 mph SE7.4 kmh SE 8.1 mph13.0 kmh 29.97 in1014.9 mb - 0.00 in0.0 mm 0.00 in0.0 mm
09:25 PM 71.3°F21.8°C 52.2°F11.2°C 51% 3.5 mph SE5.6 kmh SE 10.4 mph16.7 kmh 29.97 in1014.9 mb - 0.00 in0.0 mm 0.00 in0.0 mm
09:30 PM 71.1°F21.7°C 52.0°F11.1°C 51% 4.6 mph SSE7.4 kmh SSE 4.6 mph7.4 kmh 29.97 in1014.9 mb - 0.00 in0.0 mm 0.00 in0.0 mm
09:35 PM 71.1°F21.7°C 52.6°F11.4°C 52% 5.8 mph SE9.3 kmh SE 10.4 mph16.7 kmh 29.97 in1014.9 mb - 0.00 in0.0 mm 0.00 in0.0 mm
09:40 PM 71.1°F21.7°C 52.5°F11.4°C 52% 4.6 mph SSE7.4 kmh SSE 10.4 mph16.7 kmh 29.97 in1014.9 mb - 0.00 in0.0 mm 0.00 in0.0 mm
09:45 PM 71.0°F21.7°C 52.5°F11.4°C 52% 5.8 mph SSE9.3 kmh SSE 11.5 mph18.5 kmh 29.97 in1014.9 mb - 0.00 in0.0 mm 0.00 in0.0 mm
09:50 PM 70.9°F21.6°C 52.9°F11.6°C 53% 4.6 mph SE7.4 kmh SE 6.9 mph11.1 kmh 29.97 in1014.9 mb - 0.00 in0.0 mm 0.00 in0.0 mm
09:55 PM 70.6°F21.4°C 52.7°F11.5°C 53% 3.5 mph SE5.6 kmh SE 8.1 mph13.0 kmh 29.97 in1014.9 mb - 0.00 in0.0 mm 0.00 in0.0 mm
10:00 PM 70.4°F21.3°C 52.5°F11.4°C 53% 5.8 mph SSE9.3 kmh SSE 11.5 mph18.5 kmh 29.97 in1014.9 mb - 0.00 in0.0 mm 0.00 in0.0 mm
10:05 PM 70.3°F21.3°C 52.9°F11.6°C 54% 5.8 mph SE9.3 kmh SE 8.1 mph13.0 kmh 29.97 in1014.9 mb - 0.00 in0.0 mm 0.00 in0.0 mm
10:10 PM 70.1°F21.2°C 52.7°F11.5°C 54% 5.8 mph SE9.3 kmh SE 11.5 mph18.5 kmh 29.97 in1014.9 mb - 0.00 in0.0 mm 0.00 in0.0 mm
10:15 PM 70.1°F21.2°C 52.6°F11.4°C 54% 4.6 mph SE7.4 kmh SE 6.9 mph11.1 kmh 29.97 in1014.9 mb - 0.00 in0.0 mm 0.00 in0.0 mm
10:20 PM 69.9°F21.1°C 53.0°F11.7°C 55% 2.3 mph SSE3.7 kmh SSE 6.9 mph11.1 kmh 29.97 in1014.9 mb - 0.00 in0.0 mm 0.00 in0.0 mm
10:25 PM 70.0°F21.1°C 53.1°F11.7°C 55% 4.6 mph SE7.4 kmh SE 9.2 mph14.8 kmh 29.97 in1014.9 mb - 0.00 in0.0 mm 0.00 in0.0 mm
10:30 PM 69.9°F21.1°C 53.0°F11.7°C 55% 8.1 mph SE13.0 kmh SE 17.3 mph27.8 kmh 29.97 in1014.9 mb - 0.00 in0.0 mm 0.00 in0.0 mm
10:35 PM 69.8°F21.0°C 53.4°F11.9°C 56% 6.9 mph SSE11.1 kmh SSE 13.8 mph22.2 kmh 29.97 in1014.9 mb - 0.00 in0.0 mm 0.00 in0.0 mm
10:40 PM 69.7°F20.9°C 53.3°F11.8°C 56% 5.8 mph SE9.3 kmh SE 4.6 mph7.4 kmh 29.97 in1014.9 mb - 0.00 in0.0 mm 0.00 in0.0 mm
10:45 PM 69.4°F20.8°C 53.0°F11.7°C 56% 5.8 mph SE9.3 kmh SE 9.2 mph14.8 kmh 29.97 in1014.9 mb - 0.00 in0.0 mm 0.00 in0.0 mm
10:50 PM 69.4°F20.8°C 53.5°F11.9°C 57% 8.1 mph SE13.0 kmh SE 9.2 mph14.8 kmh 29.97 in1014.9 mb - 0.00 in0.0 mm 0.00 in0.0 mm
10:55 PM 69.3°F20.7°C 53.4°F11.9°C 57% 3.5 mph SE5.6 kmh SE 4.6 mph7.4 kmh 29.97 in1014.9 mb - 0.00 in0.0 mm 0.00 in0.0 mm
11:00 PM 69.2°F20.7°C 53.3°F11.8°C 57% 6.9 mph SSE11.1 kmh SSE 10.4 mph16.7 kmh 29.98 in1015.2 mb - 0.00 in0.0 mm 0.00 in0.0 mm
11:05 PM 68.9°F20.5°C 53.5°F11.9°C 58% 4.6 mph SSE7.4 kmh SSE 10.4 mph16.7 kmh 29.98 in1015.2 mb - 0.00 in0.0 mm 0.00 in0.0 mm
11:10 PM 68.8°F20.4°C 53.4°F11.9°C 58% 6.9 mph SSE11.1 kmh SSE 10.4 mph16.7 kmh 29.98 in1015.2 mb - 0.00 in0.0 mm 0.00 in0.0 mm
11:15 PM 68.7°F20.4°C 53.3°F11.8°C 58% 10.4 mph SE16.7 kmh SE 13.8 mph22.2 kmh 29.98 in1015.2 mb - 0.00 in0.0 mm 0.00 in0.0 mm
11:20 PM 68.6°F20.3°C 53.7°F12.1°C 59% 8.1 mph SE13.0 kmh SE 11.5 mph18.5 kmh 29.97 in1014.9 mb - 0.00 in0.0 mm 0.00 in0.0 mm
11:25 PM 68.4°F20.2°C 53.5°F11.9°C 59% 6.9 mph SE11.1 kmh SE 12.7 mph20.4 kmh 29.97 in1014.9 mb - 0.00 in0.0 mm 0.00 in0.0 mm
11:30 PM 68.1°F20.1°C 53.7°F12.1°C 60% 6.9 mph SE11.1 kmh SE 9.2 mph14.8 kmh 29.97 in1014.9 mb - 0.00 in0.0 mm 0.00 in0.0 mm
11:35 PM 67.8°F19.9°C 53.8°F12.1°C 61% 5.8 mph SSE9.3 kmh SSE 12.7 mph20.4 kmh 29.97 in1014.9 mb - 0.00 in0.0 mm 0.00 in0.0 mm
11:40 PM 67.7°F19.8°C 53.8°F12.1°C 61% 8.1 mph SSE13.0 kmh SSE 13.8 mph22.2 kmh 29.97 in1014.9 mb - 0.00 in0.0 mm 0.00 in0.0 mm
11:45 PM 67.6°F19.8°C 53.7°F12.1°C 61% 8.1 mph SSE13.0 kmh SSE 13.8 mph22.2 kmh 29.97 in1014.9 mb - 0.00 in0.0 mm 0.00 in0.0 mm
11:50 PM 67.2°F19.6°C 53.8°F12.1°C 62% 8.1 mph SSE13.0 kmh SSE 13.8 mph22.2 kmh 29.96 in1014.6 mb - 0.00 in0.0 mm 0.00 in0.0 mm
11:55 PM 67.1°F19.5°C 53.7°F12.1°C 62% 6.9 mph SE11.1 kmh SE 11.5 mph18.5 kmh 29.96 in1014.6 mb - 0.00 in0.0 mm 0.00 in0.0 mm